Time;durP1;ratioP1;P1;durP2;ratioP2;P2;SDS_P1;SDS_P2;PMS_P1;PMS_P2;Temp;Humidity;BMP_temperature;BMP_pressure;BME280_temperature;BME280_humidity;BME280_pressure;Samples;Min_cycle;Max_cycle;Signal;HPM_P1;HPM_P2
2023/11/23 00:01:35;;;;;;;17.83;13.53;;;3.50;98.70;;;;;;4992863;28;20251;-91
2023/11/23 00:04:04;;;;;;;19.93;13.43;;;3.60;99.10;;;;;;4989660;28;20250;-90
2023/11/23 00:06:31;;;;;;;17.57;13.70;;;3.60;98.70;;;;;;4999407;28;20277;-90
2023/11/23 00:08:58;;;;;;;18.93;14.13;;;3.60;98.50;;;;;;4995457;28;20292;-90
2023/11/23 00:11:25;;;;;;;18.80;13.73;;;3.60;98.60;;;;;;4989935;28;20254;-90
2023/11/23 00:13:52;;;;;;;19.47;14.17;;;3.60;98.30;;;;;;4991868;28;20200;-90
2023/11/23 00:16:19;;;;;;;21.47;16.07;;;3.60;98.90;;;;;;4995818;28;20203;-90
2023/11/23 00:18:46;;;;;;;21.20;15.57;;;3.50;99.30;;;;;;4988271;28;20207;-90
2023/11/23 00:21:14;;;;;;;19.83;14.77;;;3.40;99.50;;;;;;5001223;28;20204;-90
2023/11/23 00:23:41;;;;;;;21.83;15.53;;;3.40;99.90;;;;;;4991360;28;20200;-90
2023/11/23 00:26:08;;;;;;;20.10;14.70;;;3.40;99.90;;;;;;4994894;28;20223;-90
2023/11/23 00:28:35;;;;;;;21.63;15.03;;;3.50;99.30;;;;;;4993048;28;20539;-90
2023/11/23 00:31:01;;;;;;;19.37;14.07;;;3.50;99.20;;;;;;4992831;28;20204;-90
2023/11/23 00:33:28;;;;;;;17.20;13.10;;;3.60;98.60;;;;;;4994753;28;20199;-90
2023/11/23 00:35:55;;;;;;;20.37;13.97;;;3.70;97.90;;;;;;4998762;28;20208;-89
2023/11/23 00:38:23;;;;;;;18.67;14.03;;;3.60;97.80;;;;;;4985627;28;20291;-90
2023/11/23 00:40:50;;;;;;;18.43;13.37;;;3.50;98.30;;;;;;4991607;28;20204;-90
2023/11/23 00:43:17;;;;;;;18.47;13.50;;;3.50;98.80;;;;;;4985376;28;20227;-89
2023/11/23 00:45:45;;;;;;;22.30;13.50;;;3.50;98.40;;;;;;4987564;28;20228;-90
2023/11/23 00:48:12;;;;;;;18.33;12.97;;;3.50;97.80;;;;;;4993251;28;20203;-90
2023/11/23 00:50:39;;;;;;;21.23;12.83;;;3.50;98.10;;;;;;4989193;28;20581;-90
2023/11/23 00:53:06;;;;;;;16.87;12.87;;;3.40;98.70;;;;;;4993290;28;20202;-90
2023/11/23 00:55:36;;;;;;;20.87;13.60;;;3.40;98.90;;;;;;4992307;28;20200;-90
2023/11/23 00:58:03;;;;;;;17.27;13.40;;;3.40;99.20;;;;;;4982099;28;20235;-90
2023/11/23 01:00:30;;;;;;;18.20;13.27;;;3.40;99.20;;;;;;5000232;28;20213;-90
2023/11/23 01:02:57;;;;;;;18.90;13.07;;;3.40;99.30;;;;;;4987365;28;20304;-89
2023/11/23 01:05:24;;;;;;;17.23;12.83;;;3.30;98.90;;;;;;4990855;28;20203;-90
2023/11/23 01:07:51;;;;;;;16.90;12.57;;;3.30;99.00;;;;;;4992919;28;20200;-89
2023/11/23 01:10:17;;;;;;;15.37;12.10;;;3.30;99.40;;;;;;4997061;28;20226;-90
2023/11/23 01:12:46;;;;;;;15.83;11.90;;;3.30;99.10;;;;;;4976977;28;20224;-89
2023/11/23 01:15:13;;;;;;;16.10;12.17;;;3.20;99.00;;;;;;4993260;28;20204;-90
2023/11/23 01:17:42;;;;;;;17.97;13.20;;;3.40;98.80;;;;;;4993664;28;20208;-90
2023/11/23 01:20:10;;;;;;;18.20;13.53;;;3.30;99.00;;;;;;4997185;28;20199;-90
2023/11/23 01:22:37;;;;;;;21.03;13.43;;;3.30;99.10;;;;;;4991597;28;20676;-90
2023/11/23 01:25:06;;;;;;;17.53;13.43;;;3.30;99.20;;;;;;4992756;28;20206;-90
2023/11/23 01:27:33;;;;;;;17.83;13.30;;;3.30;99.40;;;;;;4987962;28;20228;-90
2023/11/23 01:30:02;;;;;;;19.40;14.60;;;3.30;99.40;;;;;;4986895;28;20199;-90
2023/11/23 01:32:29;;;;;;;22.67;14.93;;;3.40;99.30;;;;;;4985434;28;20681;-90
2023/11/23 01:34:56;;;;;;;20.53;13.73;;;3.30;99.20;;;;;;4991637;28;20635;-90
2023/11/23 01:37:23;;;;;;;19.60;14.00;;;3.30;99.60;;;;;;4986335;28;20208;-90
2023/11/23 01:39:50;;;;;;;21.03;14.37;;;3.40;99.60;;;;;;4983882;28;20203;-90
2023/11/23 01:42:17;;;;;;;20.03;14.63;;;3.40;99.20;;;;;;4990958;28;20283;-90
2023/11/23 01:44:44;;;;;;;20.33;14.90;;;3.40;98.90;;;;;;4972531;28;20204;-90
2023/11/23 01:47:14;;;;;;;21.30;14.87;;;3.50;98.80;;;;;;4991282;28;20222;-89
2023/11/23 01:49:42;;;;;;;21.47;14.80;;;3.40;98.80;;;;;;4999280;28;20196;-90
2023/11/23 01:52:09;;;;;;;22.80;14.67;;;3.40;98.40;;;;;;4991450;28;20616;-90
2023/11/23 01:54:36;;;;;;;18.87;13.33;;;3.50;98.40;;;;;;4991799;28;20192;-90
2023/11/23 01:57:05;;;;;;;17.80;13.27;;;3.40;98.20;;;;;;4993994;28;20208;-90
2023/11/23 01:59:32;;;;;;;19.97;13.00;;;3.40;98.50;;;;;;4990052;28;20199;-90
2023/11/23 02:02:01;;;;;;;19.13;13.77;;;3.50;98.40;;;;;;4994984;28;20195;-90
2023/11/23 02:04:30;;;;;;;20.60;13.90;;;3.50;98.10;;;;;;4985870;28;20610;-91
2023/11/23 02:06:58;;;;;;;20.47;14.00;;;3.40;98.10;;;;;;4990809;28;20219;-90
2023/11/23 02:09:25;;;;;;;20.70;14.13;;;3.30;98.40;;;;;;4988374;28;20211;-90
2023/11/23 02:11:52;;;;;;;20.83;14.10;;;3.20;98.60;;;;;;4986196;28;20218;-90
2023/11/23 02:14:19;;;;;;;20.50;14.47;;;3.20;98.60;;;;;;4991230;28;20201;-90
2023/11/23 02:16:46;;;;;;;19.03;13.77;;;3.20;98.70;;;;;;4972070;28;20207;-90
2023/11/23 02:19:13;;;;;;;18.80;12.97;;;3.30;98.60;;;;;;4991532;28;20208;-90
2023/11/23 02:21:43;;;;;;;19.43;13.60;;;3.30;98.50;;;;;;4985597;28;20202;-90
2023/11/23 02:24:14;;;;;;;20.13;13.63;;;3.30;98.40;;;;;;4972560;28;20193;-90
2023/11/23 02:26:41;;;;;;;20.27;13.43;;;3.40;98.10;;;;;;4988654;28;20240;-90
2023/11/23 02:29:08;;;;;;;16.30;12.67;;;3.30;98.00;;;;;;4990262;28;20211;-90
2023/11/23 02:31:35;;;;;;;19.57;13.67;;;3.40;97.90;;;;;;4982784;28;20649;-90
2023/11/23 02:34:01;;;;;;;18.40;13.07;;;3.40;97.70;;;;;;5000150;28;20557;-90
2023/11/23 02:36:29;;;;;;;20.93;12.83;;;3.30;98.00;;;;;;4996872;28;20200;-91
2023/11/23 02:38:55;;;;;;;19.73;13.87;;;3.20;98.10;;;;;;4988445;28;20300;-90
2023/11/23 02:41:24;;;;;;;18.63;13.30;;;3.10;98.30;;;;;;5006811;28;20206;-89
2023/11/23 02:43:51;;;;;;;19.97;13.37;;;3.10;98.60;;;;;;4999330;28;20234;-90
2023/11/23 02:46:18;;;;;;;17.37;12.97;;;3.10;99.00;;;;;;4996350;28;20590;-90
2023/11/23 02:48:47;;;;;;;18.20;13.30;;;3.10;98.90;;;;;;4999627;28;20243;-90
2023/11/23 02:51:14;;;;;;;18.07;12.77;;;3.10;98.70;;;;;;5005497;28;20283;-90
2023/11/23 02:53:43;;;;;;;17.50;12.57;;;3.10;98.90;;;;;;5012413;28;20187;-89
2023/11/23 02:56:12;;;;;;;20.23;12.73;;;3.20;98.80;;;;;;5011400;28;20192;-89
2023/11/23 02:58:40;;;;;;;17.63;12.80;;;3.20;98.90;;;;;;5010642;28;20192;-90
2023/11/23 03:01:07;;;;;;;19.30;12.67;;;3.10;99.30;;;;;;4984580;28;20568;-90
2023/11/23 03:03:34;;;;;;;15.67;11.20;;;3.20;99.00;;;;;;4984345;28;20204;-90
2023/11/23 03:06:01;;;;;;;15.20;11.33;;;3.20;98.30;;;;;;4990669;28;20204;-90
2023/11/23 03:08:28;;;;;;;17.60;12.13;;;3.30;98.20;;;;;;4989944;28;20649;-90
2023/11/23 03:10:55;;;;;;;16.00;11.63;;;3.30;98.20;;;;;;4995246;28;20206;-89
2023/11/23 03:13:22;;;;;;;17.53;11.57;;;3.30;98.30;;;;;;4991622;28;20196;-90
2023/11/23 03:15:52;;;;;;;15.30;10.97;;;3.10;98.50;;;;;;4995191;28;20210;-90
2023/11/23 03:18:19;;;;;;;15.40;11.47;;;3.30;98.20;;;;;;4998605;28;20203;-89
2023/11/23 03:20:46;;;;;;;16.53;11.20;;;3.20;98.10;;;;;;4986299;28;20204;-90
2023/11/23 03:23:12;;;;;;;16.53;11.97;;;3.20;98.30;;;;;;4992392;28;20284;-90
2023/11/23 03:25:39;;;;;;;15.43;11.37;;;3.20;98.50;;;;;;4987996;28;20204;-90
2023/11/23 03:28:07;;;;;;;16.33;11.70;;;3.30;98.10;;;;;;4992261;28;20223;-90
2023/11/23 03:30:35;;;;;;;16.10;11.87;;;3.30;98.10;;;;;;4989849;28;20299;-90
2023/11/23 03:33:03;;;;;;;16.93;12.37;;;3.30;97.90;;;;;;4989332;28;20262;-89
2023/11/23 03:35:30;;;;;;;16.13;11.53;;;3.30;98.00;;;;;;4995271;28;20206;-90
2023/11/23 03:37:58;;;;;;;16.67;11.37;;;3.30;98.10;;;;;;4987773;28;20200;-90
2023/11/23 03:40:24;;;;;;;17.27;12.30;;;3.20;98.30;;;;;;4988318;28;20243;-90
2023/11/23 03:42:51;;;;;;;18.00;12.63;;;3.20;98.80;;;;;;4986307;28;20207;-90
2023/11/23 03:45:18;;;;;;;17.47;11.50;;;3.30;98.50;;;;;;4983321;28;20228;-89
2023/11/23 03:47:47;;;;;;;17.23;12.30;;;3.20;98.80;;;;;;4996650;28;20578;-90
2023/11/23 03:50:15;;;;;;;17.83;12.70;;;3.20;98.90;;;;;;4994540;28;20673;-90
2023/11/23 03:52:42;;;;;;;17.23;12.27;;;3.20;98.90;;;;;;4993840;28;20211;-90
2023/11/23 03:55:09;;;;;;;16.17;11.83;;;3.30;98.80;;;;;;4993714;28;20279;-90
2023/11/23 03:57:37;;;;;;;17.17;12.17;;;3.20;98.90;;;;;;4996007;28;20207;-90
2023/11/23 04:00:05;;;;;;;15.27;11.40;;;3.30;98.90;;;;;;4990073;28;20209;-90
2023/11/23 04:02:32;;;;;;;15.53;11.30;;;3.40;98.60;;;;;;4992678;28;20258;-90
2023/11/23 04:04:59;;;;;;;16.80;11.87;;;3.30;98.50;;;;;;4989230;28;20212;-90
2023/11/23 04:07:27;;;;;;;14.97;11.27;;;3.30;98.60;;;;;;4990078;28;20955;-89
2023/11/23 04:09:54;;;;;;;14.93;11.53;;;3.30;98.60;;;;;;4991729;28;20200;-90
2023/11/23 04:12:21;;;;;;;16.17;11.33;;;3.40;98.30;;;;;;4994805;28;20214;-90
2023/11/23 04:14:48;;;;;;;14.53;10.37;;;3.40;98.20;;;;;;4990499;28;20290;-90
2023/11/23 04:17:14;;;;;;;15.40;11.67;;;3.40;97.80;;;;;;4993723;28;20200;-90
2023/11/23 04:19:41;;;;;;;15.80;11.30;;;3.40;98.00;;;;;;4994555;28;20732;-90
2023/11/23 04:22:08;;;;;;;18.00;11.60;;;3.30;98.20;;;;;;4992682;28;20234;-90
2023/11/23 04:24:38;;;;;;;14.67;10.70;;;3.30;98.60;;;;;;4992265;28;20604;-90
2023/11/23 04:27:05;;;;;;;16.63;11.20;;;3.30;98.20;;;;;;4997699;28;20270;-90
2023/11/23 04:29:32;;;;;;;14.20;10.60;;;3.40;98.40;;;;;;4991103;28;20826;-90
2023/11/23 04:31:59;;;;;;;14.30;10.83;;;3.40;97.60;;;;;;4991365;28;20200;-90
2023/11/23 04:34:26;;;;;;;16.47;11.47;;;3.40;97.80;;;;;;4996316;28;20214;-90
2023/11/23 04:36:53;;;;;;;14.97;11.10;;;3.40;97.70;;;;;;4987968;28;20303;-90
2023/11/23 04:39:20;;;;;;;15.93;11.40;;;3.40;98.00;;;;;;4992478;28;20191;-90
2023/11/23 04:41:48;;;;;;;15.70;10.50;;;3.40;98.20;;;;;;4984981;28;20220;-90
2023/11/23 04:44:15;;;;;;;14.23;10.33;;;3.40;97.90;;;;;;4988335;28;20201;-90
2023/11/23 04:46:42;;;;;;;15.67;10.63;;;3.40;97.80;;;;;;4993284;28;20290;-90
2023/11/23 04:49:09;;;;;;;14.07;11.07;;;3.30;97.60;;;;;;4991191;28;20200;-90
2023/11/23 04:51:37;;;;;;;16.37;10.63;;;3.30;97.60;;;;;;4994735;28;20219;-90
2023/11/23 04:54:04;;;;;;;16.53;10.73;;;3.30;97.70;;;;;;4994267;28;20223;-90
2023/11/23 04:56:31;;;;;;;15.57;11.13;;;3.30;97.90;;;;;;5021026;28;20207;-90
2023/11/23 04:59:00;;;;;;;14.43;10.40;;;3.40;97.60;;;;;;4991759;28;20211;-89
2023/11/23 05:01:26;;;;;;;14.70;11.00;;;3.40;97.60;;;;;;4991437;28;20204;-90
2023/11/23 05:03:54;;;;;;;12.50;9.83;;;3.40;97.30;;;;;;4985484;28;20208;-90
2023/11/23 05:06:21;;;;;;;13.23;10.37;;;3.40;97.60;;;;;;4989565;28;20212;-89
2023/11/23 05:08:47;;;;;;;13.40;10.30;;;3.40;97.30;;;;;;4991433;28;20254;-90
2023/11/23 05:11:14;;;;;;;14.53;10.73;;;3.40;97.30;;;;;;4991870;28;20212;-90
2023/11/23 05:13:41;;;;;;;14.37;10.70;;;3.30;97.50;;;;;;4990068;28;20200;-89
2023/11/23 05:16:10;;;;;;;15.10;10.10;;;3.30;97.80;;;;;;4989592;28;20800;-90
2023/11/23 05:18:37;;;;;;;13.53;10.00;;;3.30;98.00;;;;;;4990457;28;20211;-90
2023/11/23 05:21:04;;;;;;;13.50;10.20;;;3.30;97.90;;;;;;4989260;28;20266;-90
2023/11/23 05:23:31;;;;;;;13.07;9.97;;;3.20;97.70;;;;;;4986665;28;20220;-91
2023/11/23 05:25:57;;;;;;;13.13;9.83;;;3.20;97.50;;;;;;4983699;28;20211;-89
2023/11/23 05:28:24;;;;;;;12.70;9.60;;;3.20;97.10;;;;;;4990401;28;20220;-90
2023/11/23 05:30:52;;;;;;;11.20;9.23;;;3.10;97.30;;;;;;4993197;28;20198;-90
2023/11/23 05:33:21;;;;;;;11.70;8.93;;;3.20;97.70;;;;;;4987790;28;20196;-90
2023/11/23 05:35:47;;;;;;;12.53;9.40;;;3.10;97.50;;;;;;4995359;28;20211;-90
2023/11/23 05:38:14;;;;;;;11.57;9.27;;;3.10;97.50;;;;;;4985235;28;20235;-89
2023/11/23 05:40:41;;;;;;;13.27;9.93;;;3.20;97.60;;;;;;4989396;28;20210;-88
2023/11/23 05:43:08;;;;;;;12.93;10.27;;;3.20;97.40;;;;;;4989042;28;20200;-90
2023/11/23 05:45:34;;;;;;;12.80;9.73;;;3.20;97.30;;;;;;4990117;28;20210;-90
2023/11/23 05:48:01;;;;;;;12.97;10.00;;;3.20;97.50;;;;;;4990691;28;20226;-88
2023/11/23 05:50:30;;;;;;;14.07;10.00;;;3.30;97.60;;;;;;4991210;28;20653;-88
2023/11/23 05:52:56;;;;;;;13.37;9.40;;;3.40;97.20;;;;;;4990994;28;20239;-88
2023/11/23 05:55:23;;;;;;;13.63;10.27;;;3.40;96.90;;;;;;5019446;28;20231;-88
2023/11/23 05:57:50;;;;;;;13.77;9.67;;;3.30;97.30;;;;;;4989003;28;20208;-89
2023/11/23 06:00:18;;;;;;;13.53;10.60;;;3.40;96.90;;;;;;4989158;28;20219;-90
2023/11/23 06:02:44;;;;;;;13.50;9.70;;;3.20;97.30;;;;;;4989199;28;20654;-92
2023/11/23 06:05:12;;;;;;;16.37;10.70;;;3.30;97.30;;;;;;4994650;28;20204;-92
2023/11/23 06:07:40;;;;;;;14.10;10.37;;;3.30;97.30;;;;;;4986410;28;20867;-91
2023/11/23 06:10:09;;;;;;;13.50;10.03;;;3.30;97.50;;;;;;4991721;28;20196;-91
2023/11/23 06:12:36;;;;;;;13.10;10.47;;;3.40;97.30;;;;;;4990416;28;20203;-90
2023/11/23 06:15:04;;;;;;;14.37;10.37;;;3.30;97.30;;;;;;4991954;28;20283;-90
2023/11/23 06:17:31;;;;;;;13.13;10.30;;;3.20;97.30;;;;;;4987854;28;20203;-89
2023/11/23 06:19:58;;;;;;;15.10;11.20;;;3.20;97.50;;;;;;4993465;28;20278;-89
2023/11/23 06:22:24;;;;;;;13.87;10.77;;;3.30;97.30;;;;;;4992192;28;20207;-89
2023/11/23 06:24:53;;;;;;;14.00;10.47;;;3.30;97.30;;;;;;4991622;28;20204;-89
2023/11/23 06:27:21;;;;;;;13.67;10.40;;;3.40;97.10;;;;;;4991943;28;20673;-89
2023/11/23 06:29:48;;;;;;;15.60;11.20;;;3.30;97.60;;;;;;4987601;28;20251;-89
2023/11/23 06:32:15;;;;;;;15.47;11.03;;;3.30;97.70;;;;;;4994156;28;20195;-88
2023/11/23 06:34:42;;;;;;;14.83;10.70;;;3.30;98.10;;;;;;4993589;28;20199;-89
2023/11/23 06:37:09;;;;;;;16.27;11.17;;;3.40;97.50;;;;;;4991636;28;20196;-89
2023/11/23 06:39:37;;;;;;;14.70;10.07;;;3.40;97.60;;;;;;4992656;28;20196;-89
2023/11/23 06:42:06;;;;;;;15.77;10.37;;;3.30;98.10;;;;;;4993480;28;20960;-89
2023/11/23 06:44:32;;;;;;;13.83;10.47;;;3.30;98.10;;;;;;4985859;28;20200;-88
2023/11/23 06:47:00;;;;;;;14.77;10.93;;;3.40;97.60;;;;;;4994365;28;20204;-89
2023/11/23 06:49:27;;;;;;;14.63;10.10;;;3.50;97.50;;;;;;4991154;28;20278;-89
2023/11/23 06:51:55;;;;;;;14.67;10.50;;;3.50;97.40;;;;;;4993904;28;20230;-89
2023/11/23 06:54:21;;;;;;;13.77;10.07;;;3.60;97.50;;;;;;4991117;28;20206;-92
2023/11/23 06:56:48;;;;;;;13.67;10.03;;;3.60;97.40;;;;;;4990075;28;20540;-89
2023/11/23 06:59:18;;;;;;;12.90;9.67;;;3.60;97.20;;;;;;4992498;28;20200;-87
2023/11/23 07:01:45;;;;;;;16.90;10.47;;;3.60;97.70;;;;;;4997896;28;20258;-91
2023/11/23 07:04:12;;;;;;;14.50;9.63;;;3.60;97.70;;;;;;4988530;28;20200;-91
2023/11/23 07:06:38;;;;;;;13.90;9.50;;;3.70;97.40;;;;;;4993297;28;20202;-90
2023/11/23 07:09:06;;;;;;;12.57;9.80;;;3.70;97.10;;;;;;4999515;28;20212;-88
2023/11/23 07:11:33;;;;;;;13.93;8.77;;;3.70;97.40;;;;;;4995209;28;20215;-90
2023/11/23 07:14:00;;;;;;;12.60;9.37;;;3.80;97.30;;;;;;4994183;28;20219;-89
2023/11/23 07:16:29;;;;;;;11.60;8.50;;;3.80;97.20;;;;;;4988600;28;20218;-90
2023/11/23 07:18:55;;;;;;;11.60;8.37;;;3.70;97.20;;;;;;4994984;28;20212;-89
2023/11/23 07:21:22;;;;;;;10.67;8.37;;;3.80;96.60;;;;;;4991556;28;20473;-90
2023/11/23 07:23:49;;;;;;;14.50;9.03;;;3.80;96.60;;;;;;4991933;28;20216;-89
2023/11/23 07:26:16;;;;;;;11.87;8.77;;;3.70;96.70;;;;;;4993884;28;20207;-91
2023/11/23 07:28:43;;;;;;;10.93;8.37;;;3.70;96.90;;;;;;4993669;28;20231;-91
2023/11/23 07:31:10;;;;;;;10.90;8.37;;;3.80;96.80;;;;;;4993216;28;20200;-90
2023/11/23 07:33:38;;;;;;;13.13;8.83;;;3.80;96.90;;;;;;4993393;28;20203;-90
2023/11/23 07:36:06;;;;;;;11.17;8.63;;;3.80;96.80;;;;;;4992916;28;20232;-88
2023/11/23 07:38:33;;;;;;;9.93;7.70;;;3.80;96.70;;;;;;4995128;28;20200;-89
2023/11/23 07:41:01;;;;;;;10.97;8.17;;;3.80;96.10;;;;;;4993432;28;20200;-91
2023/11/23 07:43:28;;;;;;;10.30;7.73;;;3.70;96.40;;;;;;4994230;28;20250;-91
2023/11/23 07:45:55;;;;;;;10.53;8.30;;;3.70;96.70;;;;;;4990041;28;20204;-91
2023/11/23 07:48:22;;;;;;;10.97;8.27;;;3.70;96.50;;;;;;4999300;28;20243;-90
2023/11/23 07:50:50;;;;;;;10.37;8.13;;;3.70;96.60;;;;;;4992746;28;20218;-91
2023/11/23 07:53:17;;;;;;;11.03;8.50;;;3.70;96.50;;;;;;4996448;28;20223;-92
2023/11/23 07:55:44;;;;;;;10.23;8.10;;;3.70;96.70;;;;;;5005563;28;20213;-90
2023/11/23 07:58:11;;;;;;;9.77;7.87;;;3.80;96.70;;;;;;4994533;28;20215;-90
2023/11/23 08:00:40;;;;;;;11.73;9.07;;;3.90;96.60;;;;;;4990059;28;20215;-89
2023/11/23 08:03:07;;;;;;;10.80;8.10;;;4.00;96.80;;;;;;4993841;28;20204;-92
2023/11/23 08:05:35;;;;;;;11.73;8.17;;;4.10;96.50;;;;;;4988848;28;20208;-91
2023/11/23 08:08:03;;;;;;;10.13;7.90;;;4.10;96.10;;;;;;4988935;28;20633;-92
2023/11/23 08:10:30;;;;;;;10.93;8.37;;;4.20;96.20;;;;;;4999188;28;20208;-91
2023/11/23 08:12:58;;;;;;;9.73;8.17;;;4.20;95.60;;;;;;4991109;28;20898;-90
2023/11/23 08:15:25;;;;;;;10.13;7.70;;;4.20;95.70;;;;;;4996207;28;20204;-91
2023/11/23 08:17:52;;;;;;;11.07;8.57;;;4.20;95.90;;;;;;4991256;28;20203;-91
2023/11/23 08:20:20;;;;;;;8.73;7.40;;;4.30;95.60;;;;;;4992598;28;20203;-91
2023/11/23 08:22:47;;;;;;;8.70;6.97;;;4.30;95.80;;;;;;4995350;28;20270;-90
2023/11/23 08:25:15;;;;;;;10.20;7.93;;;4.30;95.70;;;;;;4985543;28;20211;-90
2023/11/23 08:27:42;;;;;;;9.10;7.07;;;4.40;95.70;;;;;;4990351;28;20204;-91
2023/11/23 08:30:12;;;;;;;10.33;7.90;;;4.50;95.60;;;;;;4993867;28;20196;-91
2023/11/23 08:32:39;;;;;;;10.47;7.73;;;4.60;95.90;;;;;;4993191;28;20203;-90
2023/11/23 08:35:08;;;;;;;9.87;8.20;;;4.70;95.50;;;;;;4987994;28;20208;-91
2023/11/23 08:37:35;;;;;;;8.77;7.17;;;4.80;95.00;;;;;;4988711;28;20204;-91
2023/11/23 08:40:04;;;;;;;10.53;8.07;;;4.70;95.00;;;;;;4987580;28;20235;-89
2023/11/23 08:42:33;;;;;;;9.50;7.80;;;4.80;95.00;;;;;;4981777;28;20291;-90
2023/11/23 08:45:00;;;;;;;9.83;7.83;;;4.80;95.00;;;;;;4987355;28;20199;-89
2023/11/23 08:47:27;;;;;;;9.27;7.43;;;4.60;95.00;;;;;;4990885;28;20315;-88
2023/11/23 08:49:55;;;;;;;8.80;6.93;;;4.60;94.70;;;;;;4986698;28;20232;-90
2023/11/23 08:52:22;;;;;;;8.93;6.83;;;4.70;95.00;;;;;;4987369;28;20579;-89
2023/11/23 08:54:49;;;;;;;9.53;7.07;;;4.70;95.00;;;;;;4987872;28;20451;-90
2023/11/23 08:57:16;;;;;;;8.97;7.43;;;4.90;95.10;;;;;;4992178;28;20207;-88
2023/11/23 08:59:46;;;;;;;9.57;7.50;;;5.00;95.10;;;;;;4985879;28;20208;-89
2023/11/23 09:02:13;;;;;;;10.00;7.20;;;5.00;94.50;;;;;;4984633;28;20227;-89
2023/11/23 09:04:41;;;;;;;8.87;7.33;;;5.10;94.40;;;;;;4987826;28;20204;-90
2023/11/23 09:07:08;;;;;;;8.37;7.20;;;5.20;93.10;;;;;;4991018;28;20202;-88
2023/11/23 09:09:35;;;;;;;8.80;6.70;;;5.20;93.30;;;;;;4985567;28;20647;-87
2023/11/23 09:12:02;;;;;;;8.60;6.60;;;5.50;93.20;;;;;;4989773;28;20204;-88
2023/11/23 09:14:29;;;;;;;9.83;7.83;;;5.50;92.50;;;;;;4987235;28;20204;-89
2023/11/23 09:16:57;;;;;;;109.03;66.30;;;5.40;92.10;;;;;;4984585;28;20226;-87
2023/11/23 09:19:24;;;;;;;8.47;7.40;;;5.50;92.50;;;;;;4989900;28;20195;-87
2023/11/23 09:21:51;;;;;;;8.67;6.93;;;5.60;92.70;;;;;;4988640;28;20279;-89
2023/11/23 09:24:19;;;;;;;7.70;6.70;;;5.70;91.70;;;;;;4984482;28;20199;-89
2023/11/23 09:26:47;;;;;;;8.88;7.22;;;5.60;91.60;;;;;;4991123;28;20202;-89
2023/11/23 09:29:14;;;;;;;8.18;7.10;;;5.70;91.70;;;;;;4984486;28;20679;-93
2023/11/23 09:31:40;;;;;;;12.48;7.63;;;5.80;92.10;;;;;;4985483;28;20200;-93
2023/11/23 09:34:09;;;;;;;10.27;6.90;;;6.10;91.80;;;;;;4991297;28;20204;-93
2023/11/23 09:36:36;;;;;;;7.70;6.45;;;6.50;89.90;;;;;;4993810;28;20211;-93
2023/11/23 09:39:03;;;;;;;6.88;6.18;;;7.10;86.90;;;;;;4990642;28;20661;-91
2023/11/23 09:41:36;;;;;;;7.90;6.35;;;7.80;85.10;;;;;;4985788;28;21721;-90
2023/11/23 09:44:03;;;;;;;7.00;6.30;;;8.10;73.00;;;;;;4986682;28;20258;-90
2023/11/23 09:46:32;;;;;;;6.90;6.03;;;8.10;73.00;;;;;;4983326;28;20200;-91
2023/11/23 09:49:02;;;;;;;6.97;6.05;;;8.30;66.30;;;;;;4988533;28;20215;-91
2023/11/23 09:51:31;;;;;;;7.60;6.80;;;8.10;65.50;;;;;;4986507;28;20232;-92
2023/11/23 09:54:00;;;;;;;8.10;6.45;;;7.60;72.40;;;;;;4994210;28;20207;-95
2023/11/23 09:56:27;;;;;;;6.65;5.88;;;7.40;75.60;;;;;;4996963;28;20207;-94
2023/11/23 09:58:54;;;;;;;7.28;6.47;;;7.60;75.90;;;;;;4998664;28;20258;-95
2023/11/23 10:01:26;;;;;;;7.88;6.28;;;7.70;78.90;;;;;;4997393;28;20210;-94
2023/11/23 10:03:54;;;;;;;7.15;6.38;;;7.90;75.70;;;;;;4993849;28;20207;-94
2023/11/23 10:06:21;;;;;;;7.10;6.40;;;8.20;73.00;;;;;;4992534;28;20232;-94
2023/11/23 10:08:50;;;;;;;7.03;6.32;;;8.20;68.70;;;;;;4993090;28;20590;-95
2023/11/23 10:11:18;;;;;;;7.45;6.32;;;8.20;60.10;;;;;;4996068;28;20215;-95
2023/11/23 10:13:46;;;;;;;6.95;6.22;;;8.60;55.80;;;;;;5032179;28;20200;-95
2023/11/23 10:16:13;;;;;;;7.10;6.22;;;8.80;51.80;;;;;;5003891;28;20199;-95
2023/11/23 10:18:42;;;;;;;6.82;6.03;;;8.20;53.30;;;;;;4991164;28;20204;-95
2023/11/23 10:21:12;;;;;;;6.38;5.78;;;8.10;59.50;;;;;;4995908;28;20200;-95
2023/11/23 10:23:41;;;;;;;7.03;6.32;;;8.20;59.50;;;;;;4996859;28;20200;-94
2023/11/23 10:28:51;;;;;;;6.57;5.72;;;8.10;60.60;;;;;;4997906;28;20606;-94
2023/11/23 10:31:18;;;;;;;7.50;6.38;;;8.50;54.20;;;;;;4985012;28;20203;-93
2023/11/23 10:33:51;;;;;;;6.50;5.90;;;8.90;49.30;;;;;;4995375;28;20670;-91
2023/11/23 10:36:20;;;;;;;7.60;6.35;;;8.90;47.40;;;;;;4999045;28;20204;-92
2023/11/23 10:38:47;;;;;;;6.45;5.82;;;8.80;49.80;;;;;;4994895;28;20711;-92
2023/11/23 10:41:17;;;;;;;6.55;5.95;;;8.80;50.40;;;;;;4993612;28;20258;-91
2023/11/23 10:43:45;;;;;;;7.03;6.32;;;8.80;50.00;;;;;;4993205;28;20532;-91
2023/11/23 10:46:12;;;;;;;7.88;6.65;;;8.60;47.20;;;;;;4988133;28;20192;-93
2023/11/23 10:48:42;;;;;;;7.72;6.53;;;8.20;46.90;;;;;;4997448;28;21000;-93
2023/11/23 10:51:09;;;;;;;7.43;6.20;;;8.00;50.20;;;;;;4998749;28;20220;-94
2023/11/23 10:53:40;;;;;;;7.22;6.47;;;8.20;49.60;;;;;;4998468;28;20267;-95
2023/11/23 10:56:14;;;;;;;7.22;6.45;;;8.70;46.60;;;;;;4993962;28;20207;-95
2023/11/23 11:01:30;;;;;;;6.57;5.90;;;8.00;48.00;;;;;;4995028;28;20242;-94
2023/11/23 11:03:58;;;;;;;7.55;6.40;;;7.50;51.40;;;;;;4999056;28;20200;-94
2023/11/23 11:06:26;;;;;;;6.60;5.90;;;7.00;52.10;;;;;;4994852;28;20599;-95
2023/11/23 11:08:54;;;;;;;6.75;5.97;;;6.80;59.50;;;;;;4993132;28;20224;-93
2023/11/23 11:11:22;;;;;;;7.45;6.00;;;6.80;68.30;;;;;;4997772;28;20208;-94
2023/11/23 11:13:59;;;;;;;7.47;6.65;;;6.80;67.30;;;;;;4996436;28;20201;-94
2023/11/23 11:16:34;;;;;;;8.73;6.43;;;7.00;63.20;;;;;;4993490;28;20743;-94
2023/11/23 11:19:06;;;;;;;7.65;6.18;;;6.90;64.90;;;;;;4993333;28;20206;-92
2023/11/23 11:21:42;;;;;;;7.88;6.43;;;6.80;68.80;;;;;;4993067;28;20204;-92
2023/11/23 11:24:18;;;;;;;7.53;6.18;;;7.00;69.50;;;;;;4995375;28;20730;-91
2023/11/23 11:26:46;;;;;;;7.00;5.90;;;6.90;67.00;;;;;;4993079;28;20206;-93
2023/11/23 11:29:17;;;;;;;8.35;6.32;;;7.00;65.80;;;;;;4991983;28;20319;-91
2023/11/23 11:31:48;;;;;;;8.38;6.38;;;7.10;63.80;;;;;;4994725;28;20195;-91
2023/11/23 11:34:19;;;;;;;8.45;6.60;;;7.00;68.80;;;;;;4991906;28;20652;-93
2023/11/23 11:36:50;;;;;;;7.75;5.93;;;7.10;61.30;;;;;;4993292;28;20200;-89
2023/11/23 11:39:17;;;;;;;7.77;6.50;;;7.00;62.30;;;;;;4988347;28;20200;-89
2023/11/23 11:41:47;;;;;;;7.88;6.28;;;6.90;61.80;;;;;;4985663;28;20196;-88
2023/11/23 11:44:16;;;;;;;8.27;6.55;;;6.90;62.90;;;;;;4995702;28;20200;-90
2023/11/23 11:46:43;;;;;;;9.10;6.53;;;6.90;63.90;;;;;;4989833;28;20653;-88
2023/11/23 11:49:11;;;;;;;7.43;5.95;;;7.00;68.00;;;;;;4990704;28;20220;-88
2023/11/23 11:51:38;;;;;;;7.65;5.85;;;7.00;65.30;;;;;;4981734;28;20321;-89
2023/11/23 11:54:06;;;;;;;6.40;5.80;;;7.00;66.90;;;;;;4997088;28;20265;-91
2023/11/23 11:56:34;;;;;;;5.93;5.30;;;7.00;63.60;;;;;;5002561;28;20804;-92
2023/11/23 11:59:03;;;;;;;6.85;6.00;;;7.20;61.10;;;;;;4992345;28;20204;-91
2023/11/23 12:01:33;;;;;;;6.05;5.38;;;7.20;59.50;;;;;;4991329;28;20228;-92
2023/11/23 12:04:01;;;;;;;6.55;5.28;;;7.30;59.20;;;;;;4992528;28;20584;-90
2023/11/23 12:06:29;;;;;;;7.78;5.40;;;7.40;58.60;;;;;;4992836;28;20203;-91
2023/11/23 12:08:58;;;;;;;6.15;5.22;;;7.50;59.50;;;;;;4994106;28;20231;-92
2023/11/23 12:11:26;;;;;;;5.68;5.03;;;7.60;58.90;;;;;;5008088;28;20227;-95
2023/11/23 12:13:54;;;;;;;6.03;5.38;;;7.50;60.40;;;;;;5010605;28;20200;-95
2023/11/23 12:16:21;;;;;;;7.32;5.65;;;7.40;62.40;;;;;;5004023;28;20413;-92
2023/11/23 12:18:50;;;;;;;7.55;6.07;;;7.40;63.40;;;;;;4991351;28;20197;-93
2023/11/23 12:21:18;;;;;;;7.80;6.07;;;7.40;63.50;;;;;;4992639;28;20196;-90
2023/11/23 12:23:45;;;;;;;6.47;5.80;;;7.40;68.10;;;;;;4994808;28;20208;-92
2023/11/23 12:26:14;;;;;;;7.53;5.97;;;7.50;70.40;;;;;;4992767;28;20208;-93
2023/11/23 12:28:41;;;;;;;7.03;5.72;;;7.50;65.30;;;;;;4997178;28;20196;-95
2023/11/23 12:31:08;;;;;;;9.13;6.50;;;7.60;66.70;;;;;;4995590;28;20232;-95
2023/11/23 12:33:35;;;;;;;12.98;9.80;;;7.50;67.80;;;;;;4992879;28;20200;-94
2023/11/23 12:36:05;;;;;;;14.60;10.23;;;7.80;68.40;;;;;;4992089;28;20267;-93
2023/11/23 12:38:32;;;;;;;19.20;12.48;;;8.10;69.80;;;;;;4990966;28;20678;-94
2023/11/23 12:40:59;;;;;;;12.05;9.73;;;8.10;72.40;;;;;;4992937;28;20196;-93
2023/11/23 12:43:26;;;;;;;8.18;6.97;;;8.20;67.00;;;;;;4990787;28;20206;-92
2023/11/23 12:45:54;;;;;;;11.57;8.90;;;8.40;62.10;;;;;;4988081;28;20196;-92
2023/11/23 12:48:21;;;;;;;11.65;9.10;;;8.40;62.50;;;;;;4993966;28;20529;-94
2023/11/23 12:50:48;;;;;;;14.65;10.85;;;8.30;60.40;;;;;;4996214;28;20233;-94
2023/11/23 12:55:57;;;;;;;9.40;7.47;;;8.50;61.30;;;;;;4991899;28;20215;-94